D/T METAR WX W/DIR W/SPE G/SPE TEMP DEWP
23/03/19 12:20 EGHE 231220Z 04017KT CAVOK 11/07 Q1032 NE (40°) 19.6mph 11°C 7°C
23/03/19 11:50 EGHE 231150Z 04017KT 9999 SCT040 11/07 Q1032 NE (40°) 19.6mph 11°C 7°C
23/03/19 11:20 EGHE 231120Z 04016KT CAVOK 10/07 Q1032 NE (40°) 18.4mph 10°C 7°C
23/03/19 10:50 EGHE 231050Z 05015KT CAVOK 10/07 Q1032 NE (50°) 17.3mph 10°C 7°C
23/03/19 10:20 EGHE 231020Z 05015KT 9999 FEW016 10/06 Q1032 NE (50°) 17.3mph 10°C 6°C
23/03/19 09:50 EGHE 230950Z 05016KT 9999 FEW012 SCT040 10/06 Q1032 NE (50°) 18.4mph 10°C 6°C
23/03/19 09:20 EGHE 230920Z 05015KT 9999 FEW012 SCT040 10/06 Q1032 NE (50°) 17.3mph 10°C 6°C
23/03/19 08:50 EGHE 230850Z 04017KT CAVOK 09/05 Q1031 NE (40°) 19.6mph 9°C 5°C
23/03/19 08:20 EGHE 230820Z 04016KT CAVOK 09/06 Q1031 NE (40°) 18.4mph 9°C 6°C
23/03/19 07:50 EGHE 230750Z 03016KT CAVOK 09/05 Q1031 NNE (30°) 18.4mph 9°C 5°C
22/03/19 17:50 EGHE 221750Z 23010KT 9999 FEW010 BKN030 11/10 Q1027 SW (230°) 11.5mph 11°C 10°C
22/03/19 17:20 EGHE 221720Z 23009KT 9999 FEW010 BKN030 11/10 Q1027 SW (230°) 10.4mph 11°C 10°C
22/03/19 16:50 EGHE 221650Z 22009KT 9999 BKN030 11/09 Q1027 SW (220°) 10.4mph 11°C 9°C
22/03/19 15:50 EGHE 221550Z 22010KT 9000 FEW010 BKN030 11/10 Q1027 SW (220°) 11.5mph 11°C 10°C
22/03/19 15:20 EGHE 221520Z 22012KT 9000 FEW010 BKN030 11/10 Q1027 SW (220°) 13.8mph 11°C 10°C
22/03/19 14:20 EGHE 221420Z 21011KT 9999 FEW014 BKN030 12/10 Q1027 SSW (210°) 12.7mph 12°C 10°C
22/03/19 13:50 EGHE 221350Z 20013KT 9999 FEW014 BKN030 11/10 Q1027 SSW (200°) 15.0mph 11°C 10°C
22/03/19 13:20 EGHE 221320Z 20013KT 9999 FEW014 BKN030 12/10 Q1027 SSW (200°) 15.0mph 12°C 10°C
22/03/19 12:50 EGHE 221250Z 20013KT 9999 FEW014 12/10 Q1027 SSW (200°) 15.0mph 12°C 10°C
22/03/19 12:20 EGHE 221220Z 19013KT 9999 FEW012 12/11 Q1027 S (190°) 15.0mph 12°C 11°C
22/03/19 11:50 EGHE 221150Z 19011KT 9999 FEW012 12/10 Q1027 S (190°) 12.7mph 12°C 10°C
22/03/19 11:20 EGHE 221120Z 20011KT 9999 FEW012 12/10 Q1028 SSW (200°) 12.7mph 12°C 10°C
22/03/19 10:50 EGHE 221050Z 20011KT 9999 FEW017 11/10 Q1028 SSW (200°) 12.7mph 11°C 10°C
22/03/19 10:20 EGHE 221020Z 20010KT 9999 FEW017 12/10 Q1028 SSW (200°) 11.5mph 12°C 10°C
22/03/19 09:50 EGHE 220950Z 20010KT 9999 FEW017 12/09 Q1028 SSW (200°) 11.5mph 12°C 9°C
22/03/19 08:50 EGHE 220850Z 20011KT 9999 FEW020 11/09 Q1028 SSW (200°) 12.7mph 11°C 9°C
22/03/19 08:20 EGHE 220820Z 17012KT 9999 FEW020 10/09 Q1027 S (170°) 13.8mph 10°C 9°C
22/03/19 07:50 EGHE 220750Z 17012KT 9999 FEW020 10/09 Q1027 S (170°) 13.8mph 10°C 9°C
21/03/19 17:20 EGHE 211720Z 15004KT 9999 FEW005 BKN030 11/10 Q1031 SSE (150°) 4.6mph 11°C 10°C
21/03/19 16:50 EGHE 211650Z 17003KT 9999 FEW005 BKN030 11/10 Q1032 S (170°) 3.5mph 11°C 10°C
21/03/19 16:20 EGHE 211620Z 16006KT 9999 FEW005 BKN030 11/10 Q1032 SSE (160°) 6.9mph 11°C 10°C
21/03/19 15:50 EGHE 211550Z 17005KT 9999 SCT020 BKN040 11/11 Q1032 S (170°) 5.8mph 11°C 11°C
21/03/19 15:20 EGHE 211520Z 16006KT 9999 FEW005 SCT020 BKN040 11/11 Q1032 SSE (160°) 6.9mph 11°C 11°C
21/03/19 14:50 EGHE 211450Z 16006KT 9999 FEW005 SCT020 BKN040 11/11 Q1032 SSE (160°) 6.9mph 11°C 11°C
21/03/19 14:20 EGHE 211420Z 16006KT 9999 FEW005 SCT030 BKN040 11/10 Q1033 SSE (160°) 6.9mph 11°C 10°C
21/03/19 13:20 EGHE 211320Z 17006KT 9999 FEW005 SCT020 BKN040 11/11 Q1033 S (170°) 6.9mph 11°C 11°C
21/03/19 12:50 EGHE 211250Z 16007KT 9999 FEW003 SCT005 BKN014 11/11 Q1034 SSE (160°) 8.1mph 11°C 11°C
21/03/19 11:50 EGHE 211150Z 17007KT 9999 FEW005 SCT012 11/11 Q1034 S (170°) 8.1mph 11°C 11°C
21/03/19 11:20 EGHE 211120Z 18009KT 4000 BR SCT002 BKN004 10/10 Q1034 BR S (180°) 10.4mph 10°C 10°C
21/03/19 10:50 EGHE 211050Z 18009KT 7000 SCT001 BKN003 OVC006 10/10 Q1034 S (180°) 10.4mph 10°C 10°C
21/03/19 10:20 EGHE 211020Z 18008KT 7000 SCT001 BKN003 OVC005 10/10 Q1034 S (180°) 9.2mph 10°C 10°C
21/03/19 09:50 EGHE 210950Z 19010KT 2000 BR SCT001 BKN004 OVC006 10/10 Q1035 BR S (190°) 11.5mph 10°C 10°C
21/03/19 09:20 EGHE 210920Z 19007KT 9000 SCT001 BKN003 OVC005 10/10 Q1034 S (190°) 8.1mph 10°C 10°C
21/03/19 08:50 EGHE 210850Z 19007KT 9999 SCT001 OVC004 10/10 Q1034 S (190°) 8.1mph 10°C 10°C
21/03/19 08:20 EGHE 210820Z 19007KT 9999 SCT001 OVC003 10/10 Q1034 S (190°) 8.1mph 10°C 10°C
21/03/19 07:50 EGHE 210750Z 19008KT 9999 SCT001 OVC004 10/10 Q1034 S (190°) 9.2mph 10°C 10°C
20/03/19 16:50 EGHE 201650Z 22007KT 9999 FEW007 BKN009 11/10 Q1033 SW (220°) 8.1mph 11°C 10°C
20/03/19 16:20 EGHE 201620Z 21007KT 9999 FEW007 BKN012 11/09 Q1033 SSW (210°) 8.1mph 11°C 9°C
20/03/19 15:50 EGHE 201550Z 25006KT 9999 FEW007 BKN013 11/09 Q1033 WSW (250°) 6.9mph 11°C 9°C
20/03/19 14:20 EGHE 201420Z 27008KT 9999 FEW008 BKN012 12/09 Q1033 W (270°) 9.2mph 12°C 9°C
20/03/19 13:50 EGHE 201350Z 24018KT 9999 FEW009 BKN012 12/09 Q1033 WSW (240°) 20.7mph 12°C 9°C
20/03/19 13:20 EGHE 201320Z 21009KT 9999 SCT005 BKN012 11/09 Q1033 SSW (210°) 10.4mph 11°C 9°C
20/03/19 12:50 EGHE 201250Z 20007KT 9999 SCT003 BKN008 12/11 Q1033 SSW (200°) 8.1mph 12°C 11°C
20/03/19 12:20 EGHE 201220Z 19007KT 9999 5000NW FEW002 SCT004 BKN008 12/11 Q1033 S (190°) 8.1mph 12°C 11°C
20/03/19 11:50 EGHE 201150Z 20007KT 9999 5000W BCFG FEW001 SCT003 BKN006 11/10 Q1033 BCFG SSW (200°) 8.1mph 11°C 10°C
20/03/19 11:20 EGHE 201120Z 19006KT 9999 4000W BCFG FEW001 SCT003 BKN006 11/11 Q1033 BCFG S (190°) 6.9mph 11°C 11°C
20/03/19 10:50 EGHE 201050Z 19006KT 9999 5000SW FEW001 SCT003 BKN006 11/11 Q1034 S (190°) 6.9mph 11°C 11°C
20/03/19 10:20 EGHE 201020Z 18005KT 9999 5000W FEW001 BKN005 11/10 Q1033 S (180°) 5.8mph 11°C 10°C
20/03/19 09:50 EGHE 200950Z 17006KT 8000 4000E FEW001 BKN004 10/10 Q1033 S (170°) 6.9mph 10°C 10°C
20/03/19 09:20 EGHE 200920Z 18004KT 8000 2000SW BR SCT001 BKN004 10/10 Q1033 BR S (180°) 4.6mph 10°C 10°C
20/03/19 08:20 EGHE 200820Z 23003KT 7000 BR FEW000 SCT001 BKN002 10/10 Q1033 BR SW (230°) 3.5mph 10°C 10°C
19/03/19 16:50 EGHE 191650Z 23014KT 0600 FG VV/// 10/10 Q1029 FG SW (230°) 16.1mph 10°C 10°C
19/03/19 16:20 EGHE 191620Z 23013KT 1200 BR OVC001 10/10 Q1029 BR SW (230°) 15.0mph 10°C 10°C
19/03/19 15:50 EGHE 191550Z 22013KT 1200 BR OVC002 10/10 Q1028 BR SW (220°) 15.0mph 10°C 10°C
19/03/19 15:20 EGHE 191520Z 22012KT 1200 OVC002 10/10 Q1028 SW (220°) 13.8mph 10°C 10°C
19/03/19 14:50 EGHE 191450Z 22011KT 5000 FEW004 11/10 Q1029 SW (220°) 12.7mph 11°C 10°C
19/03/19 14:20 EGHE 191420Z 23011KT 6000 SCT005 BKN011 11/10 Q1029 SW (230°) 12.7mph 11°C 10°C
19/03/19 13:50 EGHE 191350Z 21009KT 6000 SCT005 BKN011 11/10 Q1029 SSW (210°) 10.4mph 11°C 10°C
19/03/19 13:20 EGHE 191320Z 24010KT 6000 SCT005 BKN011 11/10 Q1029 WSW (240°) 11.5mph 11°C 10°C
19/03/19 12:20 EGHE 191220Z 24010KT 9999 SCT012 11/08 Q1030 WSW (240°) 11.5mph 11°C 8°C
19/03/19 11:50 EGHE 191150Z 25010KT 9999 FEW012 11/09 Q1030 WSW (250°) 11.5mph 11°C 9°C
19/03/19 11:20 EGHE 191120Z 24010KT 9999 FEW012 11/09 Q1029 WSW (240°) 11.5mph 11°C 9°C
19/03/19 10:50 EGHE 191050Z 25010KT 9999 FEW012 11/09 Q1029 WSW (250°) 11.5mph 11°C 9°C
19/03/19 09:50 EGHE 190950Z 26009KT 9999 FEW012 11/08 Q1029 W (260°) 10.4mph 11°C 8°C
19/03/19 09:20 EGHE 190920Z 27011KT 9999 FEW012 11/08 Q1029 W (270°) 12.7mph 11°C 8°C
19/03/19 08:50 EGHE 190850Z 26010KT 9999 FEW012 10/08 Q1029 W (260°) 11.5mph 10°C 8°C
19/03/19 08:20 EGHE 190820Z 28007KT 9999 FEW012 10/08 Q1028 W (280°) 8.1mph 10°C 8°C
19/03/19 07:50 EGHE 190750Z 28008KT 9999 FEW011 09/07 Q1028 W (280°) 9.2mph 9°C 7°C
19/03/19 07:20 EGHE 190720Z 29008KT 9999 FEW012 09/07 Q1028 WNW (290°) 9.2mph 9°C 7°C
18/03/19 17:50 EGHE 181750Z 29013KT 9999 -SHRA SCT010 SCT033 09/08 Q1026 -SHRA WNW (290°) 15.0mph 9°C 8°C
18/03/19 17:20 EGHE 181720Z 30014KT 9999 -RA FEW011 SCT033 09/08 Q1025 -RA WNW (300°) 16.1mph 9°C 8°C
18/03/19 16:50 EGHE 181650Z 30013KT 9999 FEW011 10/08 Q1025 WNW (300°) 15.0mph 10°C 8°C
18/03/19 16:20 EGHE 181620Z 29014KT 9999 FEW009 SCT029 10/08 Q1025 WNW (290°) 16.1mph 10°C 8°C
18/03/19 15:50 EGHE 181550Z 29014KT 9999 FEW009 SCT028 09/08 Q1025 WNW (290°) 16.1mph 9°C 8°C
18/03/19 15:20 EGHE 181520Z 28014KT 9999 -RA FEW011 SCT028 BKN037 10/08 Q1025 -RA W (280°) 16.1mph 10°C 8°C
18/03/19 14:50 EGHE 181450Z 28013KT 9999 -RA FEW011 BKN042 09/08 Q1025 -RA W (280°) 15.0mph 9°C 8°C
18/03/19 14:20 EGHE 181420Z 28013KT 9999 -RA FEW011 SCT028 BKN042 09/08 Q1025 -RA W (280°) 15.0mph 9°C 8°C
18/03/19 13:50 EGHE 181350Z 28014KT 9999 -RA FEW011 BKN028 10/08 Q1025 -RA W (280°) 16.1mph 10°C 8°C
18/03/19 13:20 EGHE 181320Z 28012KT 9999 -RA FEW011 BKN028 10/08 Q1025 -RA W (280°) 13.8mph 10°C 8°C
18/03/19 12:50 EGHE 181250Z 28014KT 9999 -RA SCT015 BKN031 09/07 Q1025 -RA W (280°) 16.1mph 9°C 7°C
18/03/19 12:20 EGHE 181220Z 28012KT 9999 FEW015 SCT045 10/07 Q1025 W (280°) 13.8mph 10°C 7°C
18/03/19 11:20 EGHE 181120Z 27012KT 9999 FEW015 BKN028 09/07 Q1025 W (270°) 13.8mph 9°C 7°C
18/03/19 10:50 EGHE 181050Z 28013KT 9999 VCSH FEW015 BKN025 09/07 Q1025 VCSH W (280°) 15.0mph 9°C 7°C
18/03/19 09:50 EGHE 180950Z 29009KT 9999 -RA FEW025 SCT035 BKN045 08/06 Q1025 -RA WNW (290°) 10.4mph 8°C 6°C
18/03/19 09:20 EGHE 180920Z 30011KT 9999 -RA FEW022 BKN026 08/05 Q1025 -RA WNW (300°) 12.7mph 8°C 5°C
18/03/19 08:50 EGHE 180850Z 30017KT 9999 -RA FEW022 SCT029 BKN037 08/05 Q1025 -RA WNW (300°) 19.6mph 8°C 5°C
18/03/19 08:20 EGHE 180820Z 30013KT 9999 VCSH SCT027 BKN033 08/05 Q1020 VCSH WNW (300°) 15.0mph 8°C 5°C
18/03/19 07:50 EGHE 180750Z 32011KT 9999 VCSH SCT024 BKN035 08/05 Q1024 VCSH NW (320°) 12.7mph 8°C 5°C
18/03/19 07:20 EGHE 180720Z 32016KT 9000 -RA SCT022 BKN032 08/04 Q1024 -RA NW (320°) 18.4mph 8°C 4°C
17/03/19 10:20 EGHE 171020Z 28021KT 9999 VCSH SCT017CB 08/04 Q1011 VCSH W (280°) 24.2mph 8°C 4°C
17/03/19 09:50 EGHE 170950Z 28023KT 9999 VCSH SCT017CB 07/04 Q1011 VCSH W (280°) 26.5mph 7°C 4°C
17/03/19 09:20 EGHE 170920Z 27018KT 9999 VCSH SCT017CB 07/04 Q1010 VCSH W (270°) 20.7mph 7°C 4°C
17/03/19 08:50 EGHE 170850Z 28020G30KT 9999 VCSH FEW006 SCT015CB 06/03 Q1010 VCSH W (280°) 23.0mph 34.5mph 6°C 3°C
17/03/19 08:20 EGHE 170820Z 27019G30KT 9999 VCSH FEW006 SCT012CB 06/04 Q1010 VCSH W (270°) 21.9mph 34.5mph 6°C 4°C
16/03/19 13:50 EGHE 161350Z 22038G50KT 7000 SCT019 BKN036 11/08 Q1001 SW (220°) 43.7mph 57.5mph 11°C 8°C
16/03/19 13:20 EGHE 161320Z 22038G48KT 7000 -DZ SCT018 BKN036 11/08 Q1001 -DZ SW (220°) 43.7mph 55.2mph 11°C 8°C
16/03/19 12:50 EGHE 161250Z 22038G48KT 8000 SCT020 BKN036 11/08 Q1002 SW (220°) 43.7mph 55.2mph 11°C 8°C
16/03/19 12:20 EGHE 161220Z 21036G47KT 8000 SCT020 BKN038 11/08 Q1002 SSW (210°) 41.4mph 54.1mph 11°C 8°C
16/03/19 11:50 EGHE 161150Z 21036G46KT 8000 SCT020 BKN036 11/08 Q1003 SSW (210°) 41.4mph 52.9mph 11°C 8°C
16/03/19 11:20 EGHE 161120Z 21034G44KT 9000 BKN027 11/08 Q1004 SSW (210°) 39.1mph 50.6mph 11°C 8°C
16/03/19 10:50 EGHE 161050Z 22032G43KT 9000 SCT017 BKN030 11/08 Q1004 SW (220°) 36.8mph 49.5mph 11°C 8°C
16/03/19 10:20 EGHE 161020Z 23033G43KT 8000 SCT020 BKN032 11/08 Q1005 SW (230°) 38.0mph 49.5mph 11°C 8°C
16/03/19 09:50 EGHE 160950Z 22033G43KT 8000 FEW018 BKN030 11/08 Q1005 SW (220°) 38.0mph 49.5mph 11°C 8°C
16/03/19 09:20 EGHE 160920Z 23030G40KT 8000 SCT017 BKN022 11/08 Q1006 SW (230°) 34.5mph 46.0mph 11°C 8°C
16/03/19 08:50 EGHE 160850Z 23030G40KT 8000 SCT019 BKN025 11/08 Q1006 SW (230°) 34.5mph 46.0mph 11°C 8°C
16/03/19 08:20 EGHE 160820Z 23030G45KT 8000 -RA SCT010 BKN024 11/08 Q1007 -RA SW (230°) 34.5mph 51.8mph 11°C 8°C
16/03/19 07:50 EGHE 160750Z 22030G41KT 9000 FEW010 SCT016 BKN028 11/08 Q1007 SW (220°) 34.5mph 47.2mph 11°C 8°C
16/03/19 07:20 EGHE 160720Z 23030G41KT 9999 FEW008 SCT016 BKN023 11/08 Q1007 SW (230°) 34.5mph 47.2mph 11°C 8°C
15/03/19 16:50 EGHE 151650Z 25021KT 8000 FEW004 SCT010 BKN019 11/10 Q1015 WSW (250°) 24.2mph 11°C 10°C
15/03/19 16:20 EGHE 151620Z 25023G33KT 7000 BKN006 11/10 Q1015 WSW (250°) 26.5mph 38.0mph 11°C 10°C
15/03/19 15:50 EGHE 151550Z 25023G35KT 6000 BKN006 11/10 Q1016 WSW (250°) 26.5mph 40.3mph 11°C 10°C
15/03/19 15:20 EGHE 151520Z 25023G35KT 7000 SCT004 BKN018 11/10 Q1016 WSW (250°) 26.5mph 40.3mph 11°C 10°C
15/03/19 14:50 EGHE 151450Z 24023G33KT 7000 SCT009 BKN022 11/10 Q1016 WSW (240°) 26.5mph 38.0mph 11°C 10°C
15/03/19 14:20 EGHE 151420Z 25024G35KT 8000 SCT009 BKN016 11/10 Q1016 WSW (250°) 27.6mph 40.3mph 11°C 10°C
15/03/19 13:50 EGHE 151350Z 25026G39KT 7000 SCT009 BKN013 12/10 Q1016 WSW (250°) 29.9mph 44.9mph 12°C 10°C
15/03/19 13:20 EGHE 151320Z 25026G36KT 8000 FEW004 SCT010 BKN017 12/10 Q1016 WSW (250°) 29.9mph 41.4mph 12°C 10°C
15/03/19 12:50 EGHE 151250Z 25028G39KT 9000 SCT010 BKN020 12/10 Q1016 WSW (250°) 32.2mph 44.9mph 12°C 10°C
15/03/19 12:20 EGHE 151220Z 25027G37KT 9000 SCT011 BKN020 12/10 Q1016 WSW (250°) 31.1mph 42.6mph 12°C 10°C
15/03/19 11:50 EGHE 151150Z 25024KT 9000 SCT015 BKN023 12/10 Q1016 WSW (250°) 27.6mph 12°C 10°C
15/03/19 11:20 EGHE 151120Z 25025G35KT 9000 SCT010 BKN023 12/10 Q1016 WSW (250°) 28.8mph 40.3mph 12°C 10°C
15/03/19 10:50 EGHE 151050Z 25026G36KT 9000 SCT012 BKN021 12/10 Q1016 WSW (250°) 29.9mph 41.4mph 12°C 10°C
15/03/19 10:20 EGHE 151020Z 25027KT 8000 SCT007 BKN011 OVC018 11/10 Q1016 WSW (250°) 31.1mph 11°C 10°C
15/03/19 09:50 EGHE 150950Z 25027KT 8000 SCT007 OVC009 11/10 Q1016 WSW (250°) 31.1mph 11°C 10°C
15/03/19 09:20 EGHE 150920Z 25027G37KT 6000 SCT004 OVC008 11/10 Q1016 WSW (250°) 31.1mph 42.6mph 11°C 10°C
15/03/19 08:50 EGHE 150850Z 25025KT 6000 -DZ SCT004 OVC008 11/10 Q1016 -DZ WSW (250°) 28.8mph 11°C 10°C
15/03/19 08:20 EGHE 150820Z 25027G38KT 4000 -DZ BR SCT005 OVC006 11/10 Q1015 -DZ BR WSW (250°) 31.1mph 43.7mph 11°C 10°C
15/03/19 07:50 EGHE 150750Z 25028G38KT 6000 -DZ SCT003 OVC007 11/10 Q1015 -DZ WSW (250°) 32.2mph 43.7mph 11°C 10°C
15/03/19 07:20 EGHE 150720Z 25027G37KT 4000 -RADZ BR SCT004 OVC008 11/10 Q1015 -RA -DZ BR WSW (250°) 31.1mph 42.6mph 11°C 10°C
14/03/19 15:20 EGHE 141520Z 26027KT 3000 OVC002 11/11 Q1015 W (260°) 31.1mph 11°C 11°C
14/03/19 14:50 EGHE 141450Z 27027G37KT 4000 OVC004 11/11 Q1015 W (270°) 31.1mph 42.6mph 11°C 11°C
14/03/19 14:20 EGHE 141420Z 27027G38KT 4000 SCT003 OVC005 12/11 Q1015 W (270°) 31.1mph 43.7mph 12°C 11°C
14/03/19 13:50 EGHE 141350Z 27026G39KT 5000 SCT003 BKN006 12/10 Q1015 W (270°) 29.9mph 44.9mph 12°C 10°C
14/03/19 13:20 EGHE 141320Z 27027G39KT 5000 SCT003 BKN006 12/10 Q1015 W (270°) 31.1mph 44.9mph 12°C 10°C
14/03/19 12:50 EGHE 141250Z 27029KT 5000 SCT003 BKN006 12/11 Q1015 W (270°) 33.4mph 12°C 11°C